Terminal Aerodrome Forecast
Issued by NWS Pocatello, ID

Home | Current Version | Previous Version | Text Only | Print | Product List | Glossary On
Versions: 1 2 3 4 5 6 7 8 9 10 11 12 13 14 15 16 17 18 19 20 21 22 23 24 25 26 27 28 29
000
FTUS45 KPIH 191100
TAFPIH
TAF
KPIH 191120Z 1912/2012 18007KT P6SM FEW050 BKN090
     FM192000 18012KT P6SM VCSH SCT010 BKN050
     FM200100 20012KT P6SM -RA SCT010 BKN030
     FM200800 22008KT P6SM VCSH SCT010 BKN020=

USA.gov is the U.S. government's official web portal to all federal, state and local government web resources and services.